createdAt,value
2023-02-11T00:01:13.487Z,2.38
2023-02-11T00:03:40.295Z,6.63
2023-02-11T00:06:11.340Z,4.22
2023-02-11T00:08:39.412Z,3.45
2023-02-11T00:11:06.298Z,3.00
2023-02-11T00:13:32.937Z,3.88
2023-02-11T00:15:59.680Z,3.15
2023-02-11T00:18:26.596Z,3.58
2023-02-11T00:20:59.418Z,4.25
2023-02-11T00:23:26.029Z,4.00
2023-02-11T00:28:33.198Z,3.08
2023-02-11T00:31:01.691Z,2.28
2023-02-11T00:40:44.315Z,2.33
2023-02-11T00:43:21.192Z,2.80
2023-02-11T00:45:54.984Z,3.13
2023-02-11T00:48:54.272Z,2.75
2023-02-11T00:54:42.954Z,2.38
2023-02-11T00:57:11.823Z,3.25
2023-02-11T01:03:35.512Z,3.80
2023-02-11T01:06:26.352Z,3.05
2023-02-11T01:12:23.643Z,3.50
2023-02-11T01:14:50.304Z,2.40
2023-02-11T01:17:16.913Z,3.22
2023-02-11T01:19:43.688Z,3.30
2023-02-11T01:22:10.335Z,3.88
2023-02-11T01:24:36.976Z,4.07
2023-02-11T01:27:04.004Z,3.30
2023-02-11T01:29:30.668Z,3.20
2023-02-11T01:31:57.529Z,3.42
2023-02-11T01:34:24.282Z,5.95
2023-02-11T01:36:50.854Z,3.42
2023-02-11T01:39:17.477Z,4.60
2023-02-11T01:41:44.110Z,3.58
2023-02-11T01:44:34.235Z,4.90
2023-02-11T01:47:01.475Z,3.72
2023-02-11T01:49:32.061Z,4.97
2023-02-11T01:52:22.321Z,4.22
2023-02-11T01:55:16.115Z,4.97
2023-02-11T01:57:47.512Z,5.50
2023-02-11T02:00:36.588Z,4.28
2023-02-11T02:03:20.263Z,5.47
2023-02-11T02:06:36.470Z,4.57
2023-02-11T02:09:10.893Z,4.30
2023-02-11T02:11:37.610Z,5.53
2023-02-11T02:14:04.203Z,5.43
2023-02-11T02:16:34.832Z,6.15
2023-02-11T02:19:30.651Z,5.20
2023-02-11T02:22:25.349Z,7.13
2023-02-11T02:25:13.585Z,6.38
2023-02-11T02:28:07.575Z,6.68
2023-02-11T02:30:43.352Z,6.05
2023-02-11T02:33:29.711Z,5.13
2023-02-11T02:36:08.833Z,5.97
2023-02-11T02:38:53.552Z,4.40
2023-02-11T02:41:27.007Z,5.53
2023-02-11T02:43:54.038Z,6.13
2023-02-11T02:46:32.463Z,4.95
2023-02-11T02:48:59.242Z,5.15
2023-02-11T02:51:42.579Z,5.55
2023-02-11T02:54:29.506Z,4.70
2023-02-11T02:57:06.242Z,5.35
2023-02-11T02:59:55.534Z,4.80
2023-02-11T03:02:28.365Z,6.10
2023-02-11T03:05:02.009Z,4.50
2023-02-11T03:07:38.621Z,4.90
2023-02-11T03:10:14.880Z,4.53
2023-02-11T03:12:43.944Z,4.80
2023-02-11T03:15:12.652Z,5.55
2023-02-11T03:17:42.698Z,4.60
2023-02-11T03:20:13.131Z,6.30
2023-02-11T03:22:50.820Z,5.30
2023-02-11T03:25:17.684Z,6.13
2023-02-11T03:27:53.099Z,5.07
2023-02-11T03:30:30.275Z,5.30
2023-02-11T03:33:07.600Z,6.65
2023-02-11T03:35:49.185Z,5.72
2023-02-11T03:38:25.046Z,7.10
2023-02-11T03:40:55.617Z,6.20
2023-02-11T03:43:28.917Z,5.90
2023-02-11T03:45:57.178Z,6.43
2023-02-11T03:48:31.886Z,7.28
2023-02-11T03:51:01.713Z,6.32
2023-02-11T03:53:28.423Z,4.70
2023-02-11T03:55:59.999Z,6.22
2023-02-11T03:58:26.590Z,6.75
2023-02-11T04:00:53.177Z,7.65
2023-02-11T04:03:19.900Z,7.18
2023-02-11T04:05:46.464Z,7.97
2023-02-11T04:08:13.074Z,5.93
2023-02-11T04:10:39.636Z,6.65
2023-02-11T04:13:06.144Z,6.97
2023-02-11T04:15:33.044Z,5.68
2023-02-11T04:17:59.571Z,6.53
2023-02-11T04:20:26.079Z,6.47
2023-02-11T04:22:52.661Z,6.43
2023-02-11T04:25:19.197Z,5.82
2023-02-11T04:27:45.737Z,6.00
2023-02-11T04:30:13.476Z,6.05
2023-02-11T04:32:40.022Z,6.78
2023-02-11T04:35:06.998Z,7.38
2023-02-11T04:37:33.691Z,8.63
2023-02-11T04:40:00.194Z,7.53
2023-02-11T04:42:26.826Z,7.65
2023-02-11T04:44:53.439Z,8.25
2023-02-11T04:47:19.921Z,8.18
2023-02-11T04:49:46.488Z,9.23
2023-02-11T04:52:13.012Z,6.70
2023-02-11T04:54:39.700Z,6.25
2023-02-11T04:57:06.579Z,7.18
2023-02-11T04:59:33.166Z,8.25
2023-02-11T05:01:59.701Z,6.22
2023-02-11T05:04:26.294Z,7.40
2023-02-11T05:06:52.891Z,6.95
2023-02-11T05:09:19.474Z,7.75
2023-02-11T05:11:45.992Z,7.47
2023-02-11T05:14:12.535Z,7.28
2023-02-11T05:16:39.100Z,7.85
2023-02-11T05:19:05.668Z,7.68
2023-02-11T05:21:32.250Z,7.22
2023-02-11T05:23:58.897Z,8.63
2023-02-11T05:26:25.923Z,7.30
2023-02-11T05:28:52.500Z,7.22
2023-02-11T05:31:19.132Z,9.75
2023-02-11T05:33:45.744Z,8.55
2023-02-11T05:36:13.483Z,8.45
2023-02-11T05:38:40.616Z,10.80
2023-02-11T05:41:07.472Z,6.40
2023-02-11T05:43:35.382Z,8.30
2023-02-11T05:46:02.546Z,8.77
2023-02-11T05:48:29.327Z,8.25
2023-02-11T05:50:55.847Z,7.72
2023-02-11T05:53:22.691Z,9.27
2023-02-11T05:55:49.492Z,8.57
2023-02-11T05:58:16.328Z,8.50
2023-02-11T06:00:42.945Z,9.50
2023-02-11T06:03:09.628Z,9.82
2023-02-11T06:05:36.197Z,7.82
2023-02-11T06:08:02.770Z,9.77
2023-02-11T06:10:29.363Z,8.77
2023-02-11T06:12:55.891Z,8.68
2023-02-11T06:15:22.419Z,9.23
2023-02-11T06:17:49.020Z,8.68
2023-02-11T06:20:15.682Z,8.38
2023-02-11T06:22:42.189Z,8.40
2023-02-11T06:25:09.152Z,8.65
2023-02-11T06:27:35.877Z,11.07
2023-02-11T06:30:02.478Z,9.43
2023-02-11T06:32:43.261Z,8.88
2023-02-11T06:35:12.245Z,9.75
2023-02-11T06:37:39.447Z,10.57
2023-02-11T06:40:06.682Z,10.55
2023-02-11T06:42:33.175Z,8.88
2023-02-11T06:44:59.780Z,10.00
2023-02-11T06:47:26.464Z,9.68
2023-02-11T06:49:53.023Z,9.05
2023-02-11T06:52:19.617Z,9.52
2023-02-11T06:54:46.211Z,9.70
2023-02-11T06:57:12.740Z,9.20
2023-02-11T06:59:39.248Z,9.40
2023-02-11T07:02:05.849Z,10.82
2023-02-11T07:04:32.601Z,9.73
2023-02-11T07:06:59.142Z,10.32
2023-02-11T07:09:25.702Z,11.95
2023-02-11T07:11:52.533Z,9.73
2023-02-11T07:14:19.165Z,10.43
2023-02-11T07:16:45.744Z,9.02
2023-02-11T07:19:12.347Z,11.40
2023-02-11T07:21:38.971Z,12.05
2023-02-11T07:24:11.210Z,12.65
2023-02-11T07:26:38.585Z,11.75
2023-02-11T07:29:05.401Z,10.98
2023-02-11T07:31:32.306Z,11.15
2023-02-11T07:34:00.998Z,11.05
2023-02-11T07:36:28.993Z,12.07
2023-02-11T07:38:55.535Z,13.15
2023-02-11T07:41:23.475Z,10.93
2023-02-11T07:43:50.319Z,11.93
2023-02-11T07:46:22.480Z,11.68
2023-02-11T07:48:49.122Z,11.30
2023-02-11T07:51:21.163Z,12.80
2023-02-11T07:53:48.015Z,12.85
2023-02-11T07:56:16.206Z,13.48
2023-02-11T07:58:43.258Z,11.65
2023-02-11T08:01:12.703Z,14.88
2023-02-11T08:03:41.320Z,12.25
2023-02-11T08:06:13.473Z,12.98
2023-02-11T08:08:40.658Z,13.32
2023-02-11T08:11:08.263Z,13.23
2023-02-11T08:13:35.388Z,13.30
2023-02-11T08:16:02.403Z,12.80
2023-02-11T08:18:29.707Z,13.63
2023-02-11T08:20:56.330Z,16.92
2023-02-11T08:23:22.961Z,14.07
2023-02-11T08:25:49.610Z,15.82
2023-02-11T08:28:16.195Z,14.82
2023-02-11T08:30:42.789Z,13.35
2023-02-11T08:33:09.322Z,14.57
2023-02-11T08:35:37.104Z,14.43
2023-02-11T08:38:03.654Z,14.00
2023-02-11T08:40:30.221Z,15.25
2023-02-11T08:42:56.769Z,14.13
2023-02-11T08:45:23.432Z,14.68
2023-02-11T08:47:49.996Z,14.23
2023-02-11T08:50:16.577Z,13.88
2023-02-11T08:52:44.283Z,15.55
2023-02-11T08:55:10.870Z,14.50
2023-02-11T08:57:37.534Z,13.95
2023-02-11T09:00:05.072Z,15.15
2023-02-11T09:02:31.640Z,16.15
2023-02-11T09:04:58.159Z,14.55
2023-02-11T09:07:24.767Z,14.68
2023-02-11T09:09:51.382Z,14.30
2023-02-11T09:12:17.922Z,14.82
2023-02-11T09:14:44.610Z,14.25
2023-02-11T09:17:11.196Z,16.40
2023-02-11T09:19:37.890Z,15.23
2023-02-11T09:22:04.602Z,14.70
2023-02-11T09:24:31.149Z,14.15
2023-02-11T09:26:57.737Z,13.70
2023-02-11T09:29:24.330Z,13.63
2023-02-11T09:31:50.957Z,13.25
2023-02-11T09:34:17.591Z,12.10
2023-02-11T09:36:44.166Z,12.55
2023-02-11T09:39:18.266Z,12.38
2023-02-11T09:42:01.769Z,13.03
2023-02-11T09:44:34.502Z,12.18
2023-02-11T09:47:13.241Z,10.77
2023-02-11T09:49:46.839Z,10.70
2023-02-11T09:52:32.271Z,12.32
2023-02-11T09:57:33.185Z,10.10
2023-02-11T10:00:00.835Z,9.88
2023-02-11T10:02:46.144Z,10.60
2023-02-11T10:05:37.595Z,10.85
2023-02-11T10:08:09.863Z,8.93
2023-02-11T10:11:29.607Z,10.32
2023-02-11T10:14:16.010Z,8.38
2023-02-11T10:17:21.396Z,8.40
2023-02-11T10:20:17.059Z,7.60
2023-02-11T10:25:39.886Z,7.60
2023-02-11T10:28:19.007Z,7.10
2023-02-11T10:31:02.714Z,8.35
2023-02-11T10:33:54.818Z,6.47
2023-02-11T10:36:24.255Z,7.75
2023-02-11T10:38:50.830Z,7.10
2023-02-11T10:41:23.148Z,7.05
2023-02-11T10:43:51.008Z,6.72
2023-02-11T10:46:22.255Z,6.60
2023-02-11T10:48:52.822Z,6.95
2023-02-11T10:51:25.529Z,7.63
2023-02-11T10:54:04.381Z,7.40
2023-02-11T10:56:54.591Z,7.60
2023-02-11T10:59:28.105Z,7.82
2023-02-11T11:02:00.599Z,5.57
2023-02-11T11:04:30.207Z,5.95
2023-02-11T11:07:29.533Z,6.28
2023-02-11T11:09:59.732Z,6.78
2023-02-11T11:12:31.389Z,6.57
2023-02-11T11:15:02.294Z,6.75
2023-02-11T11:17:29.290Z,6.88
2023-02-11T11:20:27.302Z,6.28
2023-02-11T11:23:15.435Z,5.82
2023-02-11T11:25:46.414Z,8.05
2023-02-11T11:28:23.926Z,7.03
2023-02-11T11:30:53.257Z,6.68
2023-02-11T11:33:26.973Z,7.25
2023-02-11T11:36:00.017Z,6.63
2023-02-11T11:38:28.855Z,6.05
2023-02-11T11:41:23.186Z,5.97
2023-02-11T11:44:37.875Z,5.65
2023-02-11T11:47:20.674Z,6.18
2023-02-11T11:50:11.928Z,5.90
2023-02-11T11:52:50.367Z,5.45
2023-02-11T11:55:25.013Z,6.65
2023-02-11T11:57:51.796Z,5.20
2023-02-11T12:00:21.880Z,5.57
2023-02-11T12:03:13.009Z,5.82
2023-02-11T12:05:55.695Z,5.75
2023-02-11T12:08:50.191Z,5.82
2023-02-11T12:11:47.822Z,5.30
2023-02-11T12:14:22.237Z,5.53
2023-02-11T12:16:54.405Z,5.10
2023-02-11T12:19:38.253Z,5.03
2023-02-11T12:22:55.474Z,5.78
2023-02-11T12:25:21.998Z,5.75
2023-02-11T12:28:00.796Z,5.82
2023-02-11T12:30:46.043Z,5.43
2023-02-11T12:33:25.566Z,6.85
2023-02-11T12:36:07.880Z,5.05
2023-02-11T12:38:46.563Z,5.85
2023-02-11T12:42:22.691Z,5.15
2023-02-11T12:44:52.231Z,6.20
2023-02-11T12:47:33.741Z,5.80
2023-02-11T12:50:18.201Z,6.03
2023-02-11T12:53:16.997Z,5.22
2023-02-11T12:55:47.369Z,5.55
2023-02-11T12:58:35.526Z,5.25
2023-02-11T13:01:20.393Z,4.80
2023-02-11T13:04:00.319Z,5.50
2023-02-11T13:06:37.158Z,5.38
2023-02-11T13:09:10.938Z,4.78
2023-02-11T13:11:51.823Z,4.78
2023-02-11T13:14:31.509Z,5.45
2023-02-11T13:16:59.166Z,4.72
2023-02-11T13:19:30.945Z,4.45
2023-02-11T13:22:13.485Z,5.50
2023-02-11T13:24:59.478Z,4.20
2023-02-11T13:27:31.981Z,4.20
2023-02-11T13:30:35.241Z,4.53
2023-02-11T13:33:04.488Z,3.95
2023-02-11T13:35:39.117Z,3.42
2023-02-11T13:38:25.609Z,2.83
2023-02-11T13:41:23.596Z,4.38
2023-02-11T13:44:20.593Z,3.90
2023-02-11T13:46:50.831Z,3.25
2023-02-11T13:49:22.388Z,3.97
2023-02-11T13:51:49.637Z,3.28
2023-02-11T13:54:26.692Z,3.72
2023-02-11T13:57:20.824Z,2.92
2023-02-11T13:59:50.658Z,3.20
2023-02-11T14:02:36.018Z,3.13
2023-02-11T14:08:28.316Z,2.90
2023-02-11T14:11:10.890Z,3.05
2023-02-11T14:14:03.539Z,2.63
2023-02-11T14:16:37.937Z,2.70
2023-02-11T14:21:39.109Z,2.88
2023-02-11T14:24:07.195Z,2.13
2023-02-11T14:26:56.108Z,2.55
2023-02-11T14:29:39.443Z,2.75
2023-02-11T14:32:06.339Z,3.05
2023-02-11T14:34:41.251Z,2.40
2023-02-11T14:37:21.968Z,2.20
2023-02-11T14:40:09.489Z,3.88
2023-02-11T14:42:38.454Z,2.78
2023-02-11T14:45:10.889Z,4.30
2023-02-11T14:47:52.622Z,2.40
2023-02-11T14:50:43.546Z,2.55
2023-02-11T14:53:19.684Z,3.20
2023-02-11T14:55:50.522Z,2.83
2023-02-11T14:58:24.478Z,2.83
2023-02-11T15:00:55.939Z,2.83
2023-02-11T15:03:34.513Z,2.35
2023-02-11T15:06:01.005Z,3.65
2023-02-11T15:08:30.712Z,3.38
2023-02-11T15:10:58.416Z,2.28
2023-02-11T15:13:31.097Z,2.20
2023-02-11T15:16:06.855Z,1.83
2023-02-11T15:18:45.502Z,2.35
2023-02-11T15:21:13.143Z,2.95
2023-02-11T15:23:41.188Z,2.45
2023-02-11T15:26:21.759Z,2.33
2023-02-11T15:28:56.091Z,3.80
2023-02-11T15:31:25.560Z,2.50
2023-02-11T15:33:53.897Z,4.57
2023-02-11T15:36:28.432Z,3.35
2023-02-11T15:39:30.568Z,2.30
2023-02-11T15:41:57.438Z,2.05
2023-02-11T15:44:32.042Z,3.38
2023-02-11T15:46:59.786Z,2.88
2023-02-11T15:49:27.144Z,3.20
2023-02-11T15:51:57.134Z,3.15
2023-02-11T15:54:27.684Z,2.10
2023-02-11T15:57:01.212Z,2.42
2023-02-11T15:59:31.899Z,2.47
2023-02-11T16:02:05.788Z,2.67
2023-02-11T16:04:32.672Z,4.35
2023-02-11T16:06:59.581Z,2.88
2023-02-11T16:09:34.925Z,3.25
2023-02-11T16:12:24.664Z,3.00
2023-02-11T16:14:51.196Z,2.50
2023-02-11T16:17:29.478Z,3.55
2023-02-11T16:19:56.290Z,2.88
2023-02-11T16:22:27.508Z,4.65
2023-02-11T16:24:56.654Z,4.28
2023-02-11T16:27:30.519Z,4.15
2023-02-11T16:29:58.544Z,3.17
2023-02-11T16:32:27.347Z,4.50
2023-02-11T16:34:57.835Z,4.35
2023-02-11T16:37:25.629Z,4.13
2023-02-11T16:39:56.590Z,4.00
2023-02-11T16:42:23.493Z,4.97
2023-02-11T16:44:50.154Z,3.78
2023-02-11T16:47:22.980Z,4.68
2023-02-11T16:49:50.003Z,4.00
2023-02-11T16:52:18.275Z,4.03
2023-02-11T16:54:44.806Z,3.90
2023-02-11T16:57:16.837Z,3.85
2023-02-11T16:59:44.622Z,4.13
2023-02-11T17:02:24.061Z,4.47
2023-02-11T17:04:53.404Z,3.95
2023-02-11T17:07:19.965Z,4.85
2023-02-11T17:09:46.556Z,3.92
2023-02-11T17:12:13.148Z,5.38
2023-02-11T17:14:39.712Z,4.43
2023-02-11T17:17:06.309Z,3.75
2023-02-11T17:19:32.846Z,5.15
2023-02-11T17:21:59.343Z,5.18
2023-02-11T17:24:25.851Z,5.35
2023-02-11T17:26:52.477Z,5.13
2023-02-11T17:29:21.451Z,4.85
2023-02-11T17:31:48.086Z,4.70
2023-02-11T17:34:14.799Z,5.05
2023-02-11T17:36:44.113Z,4.90
2023-02-11T17:39:10.717Z,4.28
2023-02-11T17:41:38.253Z,4.18
2023-02-11T17:44:05.436Z,6.35
2023-02-11T17:46:32.398Z,26.48
2023-02-11T17:48:59.692Z,10.80
2023-02-11T17:51:33.674Z,7.25
2023-02-11T17:54:05.778Z,6.78
2023-02-11T17:56:34.761Z,6.40
2023-02-11T17:59:02.558Z,5.72
2023-02-11T18:01:31.052Z,6.80
2023-02-11T18:03:57.764Z,6.88
2023-02-11T18:06:24.616Z,5.63
2023-02-11T18:08:51.318Z,5.78
2023-02-11T18:11:18.027Z,6.07
2023-02-11T18:13:45.345Z,5.70
2023-02-11T18:16:15.883Z,6.32
2023-02-11T18:18:43.291Z,5.75
2023-02-11T18:21:15.276Z,5.70
2023-02-11T18:23:42.041Z,4.55
2023-02-11T18:26:10.479Z,6.05
2023-02-11T18:28:37.402Z,5.85
2023-02-11T18:31:05.124Z,5.63
2023-02-11T18:33:32.119Z,7.63
2023-02-11T18:35:58.665Z,6.38
2023-02-11T18:38:25.704Z,5.40
2023-02-11T18:40:52.513Z,5.70
2023-02-11T18:43:21.937Z,5.75
2023-02-11T18:45:50.770Z,5.93
2023-02-11T18:48:19.601Z,6.28
2023-02-11T18:50:46.669Z,7.85
2023-02-11T18:53:15.693Z,6.47
2023-02-11T18:55:44.384Z,7.18
2023-02-11T18:58:11.163Z,7.60
2023-02-11T19:00:40.643Z,7.35
2023-02-11T19:03:07.195Z,7.70
2023-02-11T19:05:41.739Z,7.35
2023-02-11T19:08:08.357Z,5.70
2023-02-11T19:10:35.049Z,6.15
2023-02-11T19:13:01.651Z,6.78
2023-02-11T19:15:28.323Z,7.45
2023-02-11T19:17:54.872Z,7.10
2023-02-11T19:20:21.466Z,7.43
2023-02-11T19:22:48.034Z,7.18
2023-02-11T19:25:14.879Z,7.32
2023-02-11T19:27:41.920Z,7.13
2023-02-11T19:30:10.726Z,7.10
2023-02-11T19:32:37.242Z,6.28
2023-02-11T19:35:04.038Z,7.13
2023-02-11T19:37:30.604Z,7.38
2023-02-11T19:39:57.169Z,8.00
2023-02-11T19:42:26.511Z,13.10
2023-02-11T19:44:53.988Z,7.65
2023-02-11T19:47:26.737Z,7.07
2023-02-11T19:49:54.010Z,6.50
2023-02-11T19:52:20.599Z,7.07
2023-02-11T19:54:47.190Z,6.43
2023-02-11T19:57:13.697Z,6.45
2023-02-11T19:59:40.502Z,6.10
2023-02-11T20:02:07.049Z,6.25
2023-02-11T20:04:33.600Z,6.75
2023-02-11T20:07:00.274Z,6.00
2023-02-11T20:09:29.021Z,7.40
2023-02-11T20:11:55.608Z,8.27
2023-02-11T20:14:22.179Z,8.43
2023-02-11T20:16:50.111Z,6.65
2023-02-11T20:19:19.337Z,8.80
2023-02-11T20:21:47.770Z,7.40
2023-02-11T20:24:16.180Z,8.35
2023-02-11T20:26:42.813Z,8.25
2023-02-11T20:29:09.493Z,7.38
2023-02-11T20:31:36.318Z,6.95
2023-02-11T20:34:03.584Z,6.43
2023-02-11T20:36:32.450Z,6.30
2023-02-11T20:39:00.248Z,6.80
2023-02-11T20:41:30.839Z,8.55
2023-02-11T20:43:59.458Z,6.25
2023-02-11T20:46:28.231Z,6.82
2023-02-11T20:48:56.372Z,6.80
2023-02-11T20:51:28.589Z,6.43
2023-02-11T20:53:56.117Z,6.20
2023-02-11T20:56:28.956Z,6.43
2023-02-11T20:58:57.748Z,6.20
2023-02-11T21:01:35.225Z,6.80
2023-02-11T21:04:05.150Z,6.70
2023-02-11T21:06:37.890Z,6.00
2023-02-11T21:09:05.711Z,6.63
2023-02-11T21:11:32.482Z,6.65
2023-02-11T21:13:59.705Z,6.07
2023-02-11T21:16:27.238Z,8.88
2023-02-11T21:18:55.394Z,6.57
2023-02-11T21:21:22.314Z,7.35
2023-02-11T21:23:48.858Z,6.20
2023-02-11T21:26:17.166Z,5.20
2023-02-11T21:28:44.442Z,5.43
2023-02-11T21:31:20.166Z,5.47
2023-02-11T21:33:46.909Z,6.28
2023-02-11T21:36:15.032Z,6.20
2023-02-11T21:38:41.924Z,7.13
2023-02-11T21:41:08.523Z,7.03
2023-02-11T21:43:35.061Z,6.53
2023-02-11T21:46:08.776Z,6.22
2023-02-11T21:48:35.453Z,6.60
2023-02-11T21:51:05.950Z,7.68
2023-02-11T21:53:32.579Z,7.10
2023-02-11T21:56:07.456Z,6.60
2023-02-11T21:58:34.963Z,7.18
2023-02-11T22:01:01.985Z,6.82
2023-02-11T22:03:28.561Z,7.70
2023-02-11T22:05:55.413Z,6.68
2023-02-11T22:08:22.196Z,6.88
2023-02-11T22:10:48.878Z,7.15
2023-02-11T22:13:15.463Z,6.72
2023-02-11T22:15:42.074Z,8.50
2023-02-11T22:18:08.783Z,8.23
2023-02-11T22:20:35.328Z,7.75
2023-02-11T22:23:01.849Z,8.00
2023-02-11T22:25:28.352Z,8.02
2023-02-11T22:27:54.830Z,8.20
2023-02-11T22:30:21.481Z,7.53
2023-02-11T22:32:48.781Z,8.45
2023-02-11T22:35:15.452Z,8.45
2023-02-11T22:37:42.236Z,7.95
2023-02-11T22:40:09.078Z,8.32
2023-02-11T22:42:35.704Z,7.93
2023-02-11T22:45:03.098Z,7.05
2023-02-11T22:47:29.761Z,8.30
2023-02-11T22:49:56.332Z,7.65
2023-02-11T22:52:23.732Z,6.20
2023-02-11T22:54:51.505Z,6.07
2023-02-11T22:57:18.052Z,6.72
2023-02-11T22:59:44.802Z,7.65
2023-02-11T23:02:11.486Z,7.40
2023-02-11T23:04:38.109Z,7.22
2023-02-11T23:07:04.634Z,8.63
2023-02-11T23:09:31.238Z,7.05
2023-02-11T23:11:57.872Z,7.85
2023-02-11T23:14:24.513Z,6.85
2023-02-11T23:16:51.526Z,8.73
2023-02-11T23:19:18.159Z,6.85
2023-02-11T23:21:44.709Z,7.70
2023-02-11T23:24:14.462Z,7.20
2023-02-11T23:26:42.588Z,6.85
2023-02-11T23:29:10.239Z,6.82
2023-02-11T23:31:40.330Z,7.45
2023-02-11T23:34:07.992Z,6.97
2023-02-11T23:36:34.881Z,7.30
2023-02-11T23:39:01.784Z,7.50
2023-02-11T23:41:28.755Z,7.57
2023-02-11T23:43:57.600Z,7.85
2023-02-11T23:46:25.968Z,6.88
2023-02-11T23:48:53.094Z,7.47
2023-02-11T23:51:20.321Z,7.18
2023-02-11T23:53:49.216Z,7.15
2023-02-11T23:56:19.163Z,7.75
2023-02-11T23:58:49.179Z,8.50
